Time;durP1;ratioP1;P1;durP2;ratioP2;P2;SDS_P1;SDS_P2;PMS_P1;PMS_P2;Temp;Humidity;BMP_temperature;BMP_pressure;BME280_temperature;BME280_humidity;BME280_pressure;Samples;Min_cycle;Max_cycle;Signal;HPM_P1;HPM_P2
2023/02/21 02:14:17;;;;;;;20.40;17.55;;;9.10;99.90;;;;;;5001695;28;20968;-83
2023/02/21 02:16:55;;;;;;;20.88;17.42;;;9.10;99.90;;;;;;5001033;28;20449;-83
2023/02/21 02:20:03;;;;;;;21.17;17.58;;;9.10;99.90;;;;;;5007635;28;20476;-82
2023/02/21 02:22:50;;;;;;;21.08;16.73;;;9.10;99.90;;;;;;4983131;28;20500;-83
2023/02/21 02:25:38;;;;;;;21.42;16.85;;;9.10;99.90;;;;;;5008856;28;20406;-84
2023/02/21 02:28:55;;;;;;;19.92;16.17;;;9.20;99.90;;;;;;5009221;28;20730;-82
2023/02/21 02:31:20;;;;;;;20.52;16.42;;;9.10;99.90;;;;;;5005967;28;20418;-83
2023/02/21 02:34:05;;;;;;;20.75;16.63;;;9.10;99.90;;;;;;5008684;28;20383;-82
2023/02/21 02:36:48;;;;;;;21.60;17.67;;;9.10;99.90;;;;;;5007703;28;20425;-83
2023/02/21 02:39:27;;;;;;;21.63;17.23;;;9.10;99.90;;;;;;5010040;28;20429;-82
2023/02/21 02:42:00;;;;;;;22.10;17.52;;;9.20;99.90;;;;;;4993356;28;20472;-84
2023/02/21 02:44:33;;;;;;;20.80;16.63;;;9.10;99.90;;;;;;5002999;28;20514;-83
2023/02/21 02:47:01;;;;;;;19.60;16.35;;;9.20;99.90;;;;;;5009766;28;20399;-83
2023/02/21 02:49:30;;;;;;;19.30;15.85;;;9.20;99.90;;;;;;5008983;28;20407;-83
2023/02/21 02:52:03;;;;;;;18.38;15.45;;;9.20;99.90;;;;;;5008101;28;20437;-82
2023/02/21 02:54:28;;;;;;;19.80;16.05;;;9.20;99.90;;;;;;5009918;28;20537;-83
2023/02/21 02:56:54;;;;;;;19.37;15.90;;;9.20;99.90;;;;;;5008742;28;20486;-83
2023/02/21 02:59:25;;;;;;;16.90;15.03;;;9.30;99.90;;;;;;5007618;28;20455;-83
2023/02/21 03:02:09;;;;;;;17.95;14.90;;;9.30;99.90;;;;;;5008554;28;20414;-84
2023/02/21 03:04:52;;;;;;;17.05;14.80;;;9.40;99.90;;;;;;5007166;28;20403;-84
2023/02/21 03:07:37;;;;;;;17.02;14.70;;;9.40;99.90;;;;;;5008289;28;20411;-82
2023/02/21 03:10:20;;;;;;;15.50;13.57;;;9.40;99.90;;;;;;5006212;28;20399;-84
2023/02/21 03:12:49;;;;;;;18.23;14.53;;;9.40;99.90;;;;;;5251886;23;20447;-82
2023/02/21 03:15:48;;;;;;;16.42;13.93;;;9.50;99.90;;;;;;5011897;28;20462;-83
2023/02/21 03:18:28;;;;;;;16.73;13.70;;;9.40;99.90;;;;;;4993758;28;20407;-83
2023/02/21 03:20:57;;;;;;;17.85;14.10;;;9.40;99.90;;;;;;5006712;28;20415;-83
2023/02/21 03:23:28;;;;;;;16.83;14.00;;;9.40;99.90;;;;;;5007932;28;20510;-82
2023/02/21 03:25:59;;;;;;;15.95;13.43;;;9.40;99.90;;;;;;4995661;28;20504;-82
2023/02/21 03:28:25;;;;;;;16.00;13.45;;;9.40;99.90;;;;;;4989199;28;20389;-82
2023/02/21 03:30:55;;;;;;;14.88;13.20;;;9.40;99.90;;;;;;5001931;28;20407;-83
2023/02/21 03:33:21;;;;;;;16.35;13.68;;;9.40;99.90;;;;;;5008866;28;20403;-83
2023/02/21 03:35:47;;;;;;;15.05;13.18;;;9.40;99.90;;;;;;5008410;28;20558;-82
2023/02/21 03:38:13;;;;;;;14.75;12.98;;;9.50;99.90;;;;;;5007962;28;20407;-82
2023/02/21 03:40:39;;;;;;;14.82;13.23;;;9.40;99.90;;;;;;5005626;28;20410;-82
2023/02/21 03:43:06;;;;;;;15.70;13.52;;;9.40;99.90;;;;;;5006752;28;20502;-82
2023/02/21 03:45:32;;;;;;;15.05;13.45;;;9.40;99.90;;;;;;5007976;28;20418;-82
2023/02/21 03:47:58;;;;;;;14.63;12.93;;;9.50;99.90;;;;;;5008368;28;20395;-83
2023/02/21 03:50:27;;;;;;;14.27;12.73;;;9.50;99.90;;;;;;4992990;28;20481;-82
2023/02/21 03:52:53;;;;;;;16.55;13.32;;;9.50;99.90;;;;;;5009601;28;20460;-83
2023/02/21 03:55:19;;;;;;;13.73;12.25;;;9.40;99.90;;;;;;5008889;28;20422;-83
2023/02/21 03:57:45;;;;;;;14.32;12.40;;;9.50;99.90;;;;;;5008428;28;20410;-82
2023/02/21 04:00:12;;;;;;;14.53;12.83;;;9.50;99.90;;;;;;5008438;28;20407;-83
2023/02/21 04:02:38;;;;;;;14.00;12.25;;;9.60;99.90;;;;;;5002106;28;20395;-83
2023/02/21 04:05:04;;;;;;;14.10;12.60;;;9.60;99.90;;;;;;4997038;28;20821;-81
2023/02/21 04:07:30;;;;;;;13.95;12.32;;;9.60;99.90;;;;;;4983990;28;20461;-81
2023/02/21 04:09:55;;;;;;;14.65;13.07;;;9.70;99.90;;;;;;4993443;28;20407;-82
2023/02/21 04:12:21;;;;;;;15.27;12.88;;;9.60;99.90;;;;;;5002254;28;20500;-82
2023/02/21 04:14:47;;;;;;;15.13;13.32;;;9.60;99.90;;;;;;5006416;28;20411;-82
2023/02/21 04:17:14;;;;;;;14.30;12.80;;;9.60;99.90;;;;;;4989806;28;20487;-82
2023/02/21 04:19:40;;;;;;;15.52;13.63;;;9.60;99.90;;;;;;5002794;28;20402;-82
2023/02/21 04:22:06;;;;;;;14.05;12.63;;;9.70;99.90;;;;;;5007720;28;20395;-82
2023/02/21 04:24:32;;;;;;;14.70;13.13;;;9.70;99.90;;;;;;5006150;28;20462;-82
2023/02/21 04:26:57;;;;;;;14.70;13.20;;;9.70;99.90;;;;;;5007355;28;20735;-82
2023/02/21 04:29:23;;;;;;;15.20;13.60;;;9.60;99.90;;;;;;5006156;28;20740;-82
2023/02/21 04:31:49;;;;;;;16.85;14.73;;;9.60;99.90;;;;;;5007548;28;20414;-82
2023/02/21 04:34:14;;;;;;;17.80;14.98;;;9.50;99.90;;;;;;5006277;28;20462;-82
2023/02/21 04:36:40;;;;;;;19.57;16.30;;;9.40;99.90;;;;;;5007587;28;20395;-82
2023/02/21 04:39:06;;;;;;;18.73;15.77;;;9.40;99.90;;;;;;5007377;28;20430;-83
2023/02/21 04:41:33;;;;;;;23.83;16.50;;;9.40;99.90;;;;;;5006914;28;20396;-82
2023/02/21 04:43:58;;;;;;;21.42;17.38;;;9.40;99.90;;;;;;5008729;28;20465;-82
2023/02/21 04:46:24;;;;;;;21.97;17.43;;;9.30;99.90;;;;;;5005793;28;20762;-83
2023/02/21 04:48:51;;;;;;;22.83;17.33;;;9.40;99.90;;;;;;5007450;28;20402;-84
2023/02/21 04:51:20;;;;;;;24.30;18.25;;;9.30;99.90;;;;;;5005683;28;20406;-83
2023/02/21 04:53:47;;;;;;;23.88;17.55;;;9.30;99.90;;;;;;5007025;28;20394;-83
2023/02/21 04:56:13;;;;;;;23.45;18.05;;;9.30;99.90;;;;;;5009512;28;20419;-83
2023/02/21 04:58:39;;;;;;;24.08;18.30;;;9.30;99.90;;;;;;5010143;28;20454;-83
2023/02/21 05:01:04;;;;;;;22.33;17.70;;;9.20;99.90;;;;;;5011152;28;20406;-81
2023/02/21 05:03:30;;;;;;;23.17;17.70;;;9.30;99.90;;;;;;5011442;28;20461;-82
2023/02/21 05:05:56;;;;;;;20.92;16.85;;;9.30;99.90;;;;;;5009706;28;20919;-82
2023/02/21 05:08:22;;;;;;;24.37;17.67;;;9.40;99.90;;;;;;5010461;28;20396;-82
2023/02/21 05:10:48;;;;;;;23.08;18.05;;;9.30;99.90;;;;;;5009886;28;20572;-82
2023/02/21 05:13:15;;;;;;;22.85;18.15;;;9.30;99.90;;;;;;5009238;28;20949;-82
2023/02/21 05:15:41;;;;;;;22.13;17.60;;;9.30;99.90;;;;;;5020320;28;20435;-82
2023/02/21 05:18:07;;;;;;;23.83;17.88;;;9.30;99.90;;;;;;5013851;28;20422;-81
2023/02/21 05:20:33;;;;;;;25.05;17.92;;;9.30;99.90;;;;;;5012326;28;20902;-81
2023/02/21 05:22:59;;;;;;;22.45;17.83;;;9.20;99.90;;;;;;5003676;28;20402;-82
2023/02/21 05:25:24;;;;;;;24.30;18.45;;;9.20;99.90;;;;;;4992352;28;20829;-82
2023/02/21 05:27:52;;;;;;;25.43;19.00;;;9.20;99.90;;;;;;4985799;28;20755;-81
2023/02/21 05:30:21;;;;;;;25.95;19.48;;;9.20;99.90;;;;;;5004298;28;20865;-81
2023/02/21 05:32:47;;;;;;;25.77;18.17;;;9.20;99.90;;;;;;5027854;28;20381;-81
2023/02/21 05:35:14;;;;;;;26.88;19.05;;;9.20;99.90;;;;;;5010536;28;21129;-82
2023/02/21 05:37:40;;;;;;;26.67;19.85;;;9.20;99.90;;;;;;5010986;28;20389;-81
2023/02/21 05:40:06;;;;;;;25.10;18.40;;;9.10;99.90;;;;;;5010395;28;20872;-81
2023/02/21 05:42:32;;;;;;;24.15;17.60;;;9.20;99.90;;;;;;4991990;28;20747;-82
2023/02/21 05:44:58;;;;;;;25.27;18.48;;;9.20;99.90;;;;;;4998364;28;20893;-82
2023/02/21 05:47:24;;;;;;;24.73;17.87;;;9.20;99.90;;;;;;5007721;28;20533;-81
2023/02/21 05:49:50;;;;;;;26.23;17.73;;;9.10;99.90;;;;;;5009401;28;20401;-82
2023/02/21 05:52:16;;;;;;;28.07;18.97;;;9.10;99.90;;;;;;5010032;28;20457;-82
2023/02/21 05:54:43;;;;;;;26.77;17.65;;;9.10;99.90;;;;;;5008706;28;20411;-81
2023/02/21 05:57:09;;;;;;;26.98;18.23;;;9.20;99.90;;;;;;5008835;28;20407;-83
2023/02/21 05:59:36;;;;;;;27.63;18.88;;;9.20;99.90;;;;;;5010029;28;20466;-82
2023/02/21 06:02:02;;;;;;;26.92;18.27;;;9.10;99.90;;;;;;5008605;28;20407;-83
2023/02/21 06:04:28;;;;;;;28.73;18.55;;;9.10;99.90;;;;;;5010540;28;20409;-84
2023/02/21 06:06:53;;;;;;;26.75;18.33;;;9.10;99.90;;;;;;5008739;28;20442;-83
2023/02/21 06:09:19;;;;;;;23.37;17.47;;;9.00;99.90;;;;;;5008417;28;20948;-83
2023/02/21 06:11:45;;;;;;;27.00;17.60;;;9.10;99.90;;;;;;5009818;28;20437;-83
2023/02/21 06:14:16;;;;;;;25.27;17.85;;;9.10;99.90;;;;;;5008607;28;20478;-83
2023/02/21 06:16:43;;;;;;;24.55;16.58;;;9.10;99.90;;;;;;5008930;28;20497;-82
2023/02/21 06:19:11;;;;;;;24.25;17.35;;;9.10;99.90;;;;;;5012366;28;20458;-81
2023/02/21 06:21:37;;;;;;;23.35;15.88;;;9.10;99.90;;;;;;5009182;28;20411;-82
2023/02/21 06:24:04;;;;;;;22.58;16.10;;;9.10;99.90;;;;;;5009150;28;20873;-83
2023/02/21 06:26:30;;;;;;;20.58;15.73;;;9.10;99.90;;;;;;5009846;28;21153;-82
2023/02/21 06:28:55;;;;;;;22.13;16.13;;;9.10;99.90;;;;;;4991927;28;20407;-82
2023/02/21 06:31:21;;;;;;;23.08;15.82;;;9.10;99.90;;;;;;5010121;28;20403;-82
2023/02/21 06:33:48;;;;;;;25.35;17.30;;;9.20;99.90;;;;;;5009862;28;20399;-82
2023/02/21 06:36:19;;;;;;;25.40;16.35;;;9.10;99.90;;;;;;5008075;28;20426;-84
2023/02/21 06:38:49;;;;;;;24.33;15.95;;;9.10;99.90;;;;;;5009242;28;20414;-82
2023/02/21 06:41:18;;;;;;;24.77;15.75;;;9.10;99.90;;;;;;5000530;28;20405;-82
2023/02/21 06:43:44;;;;;;;23.77;17.00;;;9.10;99.90;;;;;;4991515;28;20408;-84
2023/02/21 06:46:15;;;;;;;23.20;15.70;;;9.10;99.90;;;;;;5004320;28;21325;-82
2023/02/21 06:48:44;;;;;;;25.27;16.60;;;9.10;99.90;;;;;;5009702;28;20399;-82
2023/02/21 06:51:13;;;;;;;21.02;14.95;;;9.10;99.90;;;;;;5010104;28;20403;-81
2023/02/21 06:53:39;;;;;;;20.58;14.30;;;9.10;99.90;;;;;;5008824;28;20407;-82
2023/02/21 06:56:06;;;;;;;19.53;14.30;;;9.10;99.90;;;;;;5023508;28;20455;-83
2023/02/21 06:58:32;;;;;;;20.48;14.32;;;9.20;99.90;;;;;;5007410;28;20453;-82
2023/02/21 07:00:58;;;;;;;21.40;14.00;;;9.10;99.90;;;;;;4996682;28;20416;-83
2023/02/21 07:03:24;;;;;;;19.50;12.83;;;9.10;99.90;;;;;;5007697;28;20395;-83
2023/02/21 07:05:49;;;;;;;20.02;13.88;;;9.20;99.90;;;;;;5014306;28;20461;-83
2023/02/21 07:08:15;;;;;;;20.48;13.25;;;9.20;99.90;;;;;;5028526;28;20783;-83
2023/02/21 07:10:41;;;;;;;18.73;12.87;;;9.20;99.90;;;;;;5016427;28;20857;-82
2023/02/21 07:13:06;;;;;;;17.30;12.63;;;9.10;99.90;;;;;;5009799;28;20422;-83
2023/02/21 07:15:32;;;;;;;16.55;11.60;;;9.20;99.90;;;;;;5008820;28;20497;-83
2023/02/21 07:17:58;;;;;;;14.13;10.83;;;9.20;99.90;;;;;;5008652;28;20725;-83
2023/02/21 07:20:24;;;;;;;15.00;10.30;;;9.20;99.90;;;;;;5010353;28;20433;-82
2023/02/21 07:22:49;;;;;;;11.57;8.83;;;9.20;99.90;;;;;;5020332;28;20846;-84
2023/02/21 07:25:18;;;;;;;10.43;8.48;;;9.30;99.90;;;;;;5029215;28;20855;-84
2023/02/21 07:27:48;;;;;;;10.32;7.90;;;9.20;99.90;;;;;;5020471;28;20383;-83
2023/02/21 07:30:16;;;;;;;8.55;7.03;;;9.20;99.90;;;;;;5010160;28;20386;-83
2023/02/21 07:32:42;;;;;;;8.83;6.73;;;9.20;99.90;;;;;;5009278;28;20380;-83
2023/02/21 07:35:10;;;;;;;6.93;5.73;;;9.30;99.90;;;;;;5009628;28;20405;-83
2023/02/21 07:37:36;;;;;;;6.23;5.03;;;9.30;99.90;;;;;;5009066;28;20834;-83
2023/02/21 07:40:10;;;;;;;6.03;4.53;;;9.40;99.90;;;;;;5007476;28;20410;-83
2023/02/21 07:42:42;;;;;;;5.00;4.20;;;9.40;99.90;;;;;;5008729;28;20908;-82
2023/02/21 07:45:12;;;;;;;3.35;2.80;;;9.40;99.90;;;;;;5009263;28;20433;-82
2023/02/21 07:47:38;;;;;;;2.40;2.20;;;9.30;99.90;;;;;;5005273;28;20476;-82
2023/02/21 07:50:09;;;;;;;2.47;2.10;;;9.40;99.90;;;;;;5009001;28;20375;-82
2023/02/21 07:52:35;;;;;;;1.65;1.50;;;9.40;99.90;;;;;;5009578;28;20897;-83
2023/02/21 07:55:00;;;;;;;1.50;1.40;;;9.50;99.90;;;;;;5008867;28;20399;-81
2023/02/21 07:57:26;;;;;;;1.50;1.40;;;9.50;99.90;;;;;;5008336;28;20421;-81
2023/02/21 07:59:52;;;;;;;1.75;1.40;;;9.60;99.90;;;;;;5005706;28;20410;-82
2023/02/21 08:02:18;;;;;;;1.45;1.20;;;9.60;99.90;;;;;;5000476;28;20410;-82
2023/02/21 08:04:44;;;;;;;1.35;1.20;;;9.60;99.90;;;;;;5007781;28;20454;-82
2023/02/21 08:07:09;;;;;;;1.60;1.17;;;9.70;99.90;;;;;;5007105;28;20379;-81
2023/02/21 08:09:37;;;;;;;1.67;1.15;;;9.80;99.90;;;;;;5008986;28;20391;-82
2023/02/21 08:12:03;;;;;;;1.42;1.33;;;9.80;99.90;;;;;;5009390;28;20423;-82
2023/02/21 08:14:30;;;;;;;1.30;1.10;;;9.90;99.90;;;;;;4992102;28;20442;-80
2023/02/21 08:16:56;;;;;;;2.00;1.35;;;10.00;99.90;;;;;;5007120;28;20433;-81
2023/02/21 08:19:22;;;;;;;1.20;1.10;;;10.00;99.90;;;;;;5008830;28;20481;-81
2023/02/21 08:21:48;;;;;;;1.70;1.17;;;10.10;99.90;;;;;;5009000;28;20725;-81
2023/02/21 08:24:15;;;;;;;1.30;1.20;;;10.20;99.90;;;;;;5009132;28;20481;-82
2023/02/21 08:26:44;;;;;;;1.30;1.00;;;10.40;99.90;;;;;;5009440;28;20383;-81
2023/02/21 08:29:10;;;;;;;1.30;1.20;;;10.50;99.90;;;;;;5005237;28;20478;-80
2023/02/21 08:31:37;;;;;;;1.25;1.00;;;10.40;99.90;;;;;;5009307;28;20905;-79
2023/02/21 08:34:04;;;;;;;1.63;1.37;;;10.40;99.90;;;;;;5010282;28;20925;-82
2023/02/21 08:36:32;;;;;;;1.83;1.40;;;10.40;99.90;;;;;;5009550;28;20953;-83
2023/02/21 08:38:58;;;;;;;2.28;1.48;;;10.40;99.90;;;;;;4992487;28;20387;-83
2023/02/21 08:41:24;;;;;;;2.90;1.30;;;10.30;99.90;;;;;;5010658;28;20442;-83
2023/02/21 08:43:50;;;;;;;1.60;1.50;;;10.20;99.90;;;;;;5006267;28;20778;-82
2023/02/21 08:46:16;;;;;;;2.93;1.70;;;10.20;99.90;;;;;;5018005;28;20462;-82
2023/02/21 08:48:42;;;;;;;1.70;1.50;;;10.20;99.90;;;;;;5020111;28;20402;-82
2023/02/21 08:51:08;;;;;;;2.77;1.57;;;10.40;99.90;;;;;;5029513;28;20378;-83
2023/02/21 08:53:33;;;;;;;3.07;1.60;;;10.30;99.90;;;;;;5028515;28;20452;-83
2023/02/21 08:55:59;;;;;;;2.22;1.63;;;10.30;99.90;;;;;;5029177;28;20405;-82
2023/02/21 08:58:25;;;;;;;1.90;1.60;;;10.20;99.90;;;;;;5016226;28;20394;-83
2023/02/21 09:00:50;;;;;;;1.70;1.60;;;10.20;99.90;;;;;;5009133;28;20363;-82
2023/02/21 09:03:16;;;;;;;2.13;1.88;;;10.20;99.90;;;;;;5009224;28;20951;-82
2023/02/21 09:05:42;;;;;;;2.28;2.00;;;10.20;99.90;;;;;;5009502;28;20994;-82
2023/02/21 09:08:09;;;;;;;3.07;1.93;;;10.30;99.90;;;;;;5009430;28;20892;-83
2023/02/21 09:10:35;;;;;;;2.97;1.60;;;10.20;99.90;;;;;;5009186;28;20394;-83
2023/02/21 09:13:02;;;;;;;2.83;1.70;;;10.10;99.90;;;;;;5007626;28;20512;-82
2023/02/21 09:15:28;;;;;;;2.03;1.77;;;10.20;99.90;;;;;;5009704;28;20415;-83
2023/02/21 09:17:54;;;;;;;2.88;1.63;;;10.20;99.90;;;;;;5009649;28;20463;-82
2023/02/21 09:20:23;;;;;;;3.77;1.80;;;10.30;99.90;;;;;;5009588;28;20817;-83
2023/02/21 09:22:49;;;;;;;3.83;2.50;;;10.40;99.90;;;;;;5009862;28;20383;-82
2023/02/21 09:25:17;;;;;;;4.45;2.50;;;10.40;99.90;;;;;;5009546;28;20383;-82
2023/02/21 09:27:43;;;;;;;5.32;2.10;;;10.40;99.90;;;;;;5008886;28;20383;-81
2023/02/21 09:30:22;;;;;;;5.90;1.98;;;10.40;99.90;;;;;;5010117;28;20754;-84
2023/02/21 09:32:48;;;;;;;7.18;2.20;;;10.40;99.90;;;;;;5009763;28;20458;-82
2023/02/21 09:35:15;;;;;;;7.60;2.17;;;10.50;99.90;;;;;;5008434;28;20411;-82
2023/02/21 09:37:42;;;;;;;7.03;2.40;;;10.40;99.90;;;;;;5007047;28;20433;-83
2023/02/21 09:40:39;;;;;;;7.72;2.40;;;10.50;99.90;;;;;;5009233;28;20375;-83
2023/02/21 09:43:13;;;;;;;8.05;2.90;;;10.50;99.90;;;;;;5012206;28;20411;-82
2023/02/21 09:45:41;;;;;;;5.75;2.55;;;10.60;99.90;;;;;;5013203;28;20403;-82
2023/02/21 09:48:13;;;;;;;8.93;2.40;;;10.60;99.90;;;;;;5013342;28;20378;-83
2023/02/21 09:50:57;;;;;;;7.55;2.38;;;10.60;99.90;;;;;;5011045;28;20434;-82
2023/02/21 09:53:32;;;;;;;7.35;2.63;;;10.80;99.90;;;;;;5012049;28;20383;-82
2023/02/21 09:56:03;;;;;;;7.95;2.15;;;10.80;99.90;;;;;;5012287;28;20405;-82
2023/02/21 09:58:30;;;;;;;7.27;2.53;;;11.00;99.90;;;;;;5012119;28;20375;-82
2023/02/21 10:01:03;;;;;;;6.65;2.08;;;11.20;99.90;;;;;;5012833;28;20414;-83
2023/02/21 10:03:56;;;;;;;7.90;2.53;;;11.20;99.90;;;;;;5011477;28;20455;-82
2023/02/21 10:07:04;;;;;;;5.20;2.07;;;11.60;99.90;;;;;;5014105;28;20403;-83
2023/02/21 10:10:03;;;;;;;8.40;2.20;;;11.70;99.90;;;;;;4969328;28;20509;-83
2023/02/21 10:12:43;;;;;;;3.93;1.77;;;11.90;99.90;;;;;;5006307;28;20379;-84
2023/02/21 10:15:12;;;;;;;5.30;1.60;;;12.30;99.90;;;;;;5011461;28;20699;-84
2023/02/21 10:17:51;;;;;;;5.30;1.70;;;12.40;99.90;;;;;;5011471;28;20383;-83
2023/02/21 10:20:37;;;;;;;6.25;1.60;;;12.20;99.90;;;;;;5011350;28;20397;-82
2023/02/21 10:23:13;;;;;;;3.40;1.67;;;11.90;99.90;;;;;;5013546;28;20389;-82
2023/02/21 10:25:42;;;;;;;4.53;1.55;;;11.60;99.90;;;;;;5017517;28;20414;-83
2023/02/21 10:28:20;;;;;;;4.68;2.08;;;11.80;99.90;;;;;;5010205;28;20458;-82
2023/02/21 10:30:49;;;;;;;2.92;1.52;;;11.90;99.90;;;;;;5010397;28;20453;-83
2023/02/21 10:33:15;;;;;;;9.13;4.95;;;11.90;99.90;;;;;;5010303;28;20451;-82
2023/02/21 10:35:41;;;;;;;3.25;1.90;;;12.00;99.90;;;;;;5009715;28;20399;-82
2023/02/21 10:38:18;;;;;;;3.30;1.20;;;12.00;99.90;;;;;;5010577;28;20453;-83
2023/02/21 10:41:01;;;;;;;4.97;1.83;;;12.00;99.90;;;;;;5004631;28;20805;-82
2023/02/21 10:43:47;;;;;;;5.43;1.60;;;11.90;99.90;;;;;;5009724;28;20456;-81
2023/02/21 10:46:30;;;;;;;5.63;1.50;;;11.60;99.90;;;;;;5011040;28;20390;-83
2023/02/21 10:49:35;;;;;;;3.55;1.60;;;11.40;99.90;;;;;;5010816;28;20371;-83
2023/02/21 10:52:22;;;;;;;3.33;1.60;;;11.40;99.90;;;;;;5001655;28;20790;-81
2023/02/21 10:55:01;;;;;;;4.50;1.55;;;11.40;99.90;;;;;;5020658;28;20410;-83
2023/02/21 10:57:30;;;;;;;4.13;1.50;;;11.30;99.90;;;;;;5010267;28;20462;-83
2023/02/21 10:59:56;;;;;;;3.80;1.55;;;11.40;99.90;;;;;;5026470;28;21142;-83
2023/02/21 11:02:39;;;;;;;6.70;1.90;;;11.50;99.90;;;;;;5030873;28;20379;-82
2023/02/21 11:05:23;;;;;;;4.15;1.60;;;11.50;99.90;;;;;;5014249;28;20414;-82
2023/02/21 11:08:05;;;;;;;7.35;2.08;;;11.40;99.90;;;;;;5011052;28;20375;-82
2023/02/21 11:10:34;;;;;;;4.55;1.65;;;11.50;99.90;;;;;;5009852;28;20378;-81
2023/02/21 11:13:13;;;;;;;6.70;1.92;;;11.90;99.90;;;;;;4991790;28;20414;-82
2023/02/21 11:15:39;;;;;;;3.83;1.60;;;12.10;99.90;;;;;;5008608;28;20432;-83
2023/02/21 11:18:22;;;;;;;5.77;2.43;;;12.30;99.90;;;;;;5010058;28;20403;-83
2023/02/21 11:20:47;;;;;;;7.78;2.03;;;12.30;99.90;;;;;;5011880;28;20745;-83
2023/02/21 11:23:31;;;;;;;6.20;2.10;;;11.90;99.90;;;;;;5009107;28;20371;-84
2023/02/21 11:26:15;;;;;;;5.72;2.13;;;12.00;99.90;;;;;;5007676;28;20391;-82
2023/02/21 11:28:46;;;;;;;7.75;2.63;;;12.30;99.90;;;;;;5009455;28;20387;-83
2023/02/21 11:31:24;;;;;;;8.35;2.47;;;12.50;99.90;;;;;;5007845;28;20825;-84
2023/02/21 11:33:56;;;;;;;6.77;2.27;;;12.60;99.90;;;;;;5009227;28;20383;-82
2023/02/21 11:36:31;;;;;;;6.30;2.30;;;12.70;99.90;;;;;;5009964;28;20439;-82
2023/02/21 11:39:03;;;;;;;5.90;2.40;;;12.40;99.90;;;;;;5010037;28;20379;-80
2023/02/21 11:41:46;;;;;;;6.90;2.30;;;12.00;99.90;;;;;;4989185;28;20762;-83
2023/02/21 11:44:21;;;;;;;8.65;2.63;;;11.70;99.90;;;;;;5006748;28;20901;-82
2023/02/21 11:46:51;;;;;;;8.30;2.60;;;11.40;99.90;;;;;;5008023;28;20392;-82
2023/02/21 11:49:20;;;;;;;10.20;2.72;;;11.20;99.90;;;;;;5006007;28;20475;-83
2023/02/21 11:52:15;;;;;;;7.18;2.90;;;11.10;99.90;;;;;;5009560;28;20699;-82
2023/02/21 11:54:43;;;;;;;7.40;2.45;;;11.10;99.90;;;;;;4994159;28;20477;-82
2023/02/21 11:57:14;;;;;;;8.85;2.75;;;11.20;99.90;;;;;;5009597;28;20858;-83
2023/02/21 12:00:07;;;;;;;8.90;2.67;;;11.30;99.90;;;;;;5004734;28;20474;-83
2023/02/21 12:02:52;;;;;;;11.33;3.00;;;11.20;99.90;;;;;;5013749;28;20410;-83
2023/02/21 12:05:33;;;;;;;6.70;2.83;;;11.10;99.90;;;;;;5008878;28;20387;-82
2023/02/21 12:08:17;;;;;;;10.75;3.17;;;11.00;99.90;;;;;;5007893;28;20393;-82
2023/02/21 12:11:20;;;;;;;9.40;2.80;;;10.90;99.90;;;;;;5009966;28;20557;-82
2023/02/21 12:14:11;;;;;;;9.38;2.50;;;10.90;99.90;;;;;;5009660;28;20493;-82
2023/02/21 12:17:14;;;;;;;11.02;2.88;;;10.90;99.90;;;;;;5009242;28;20407;-82
2023/02/21 12:19:49;;;;;;;9.75;3.13;;;11.00;99.90;;;;;;5007052;28;20395;-83
2023/02/21 12:22:22;;;;;;;10.55;2.85;;;11.00;99.90;;;;;;5008441;28;20407;-83
2023/02/21 12:25:02;;;;;;;9.30;3.05;;;11.00;99.90;;;;;;5009144;28;20414;-83
2023/02/21 12:27:37;;;;;;;7.40;2.63;;;11.00;99.90;;;;;;5012108;28;20455;-83
2023/02/21 12:30:07;;;;;;;10.82;3.00;;;10.90;99.90;;;;;;5008525;28;20425;-83
2023/02/21 12:32:48;;;;;;;7.50;2.40;;;10.90;99.90;;;;;;5015590;28;20370;-83
2023/02/21 12:35:14;;;;;;;7.40;2.28;;;10.80;99.90;;;;;;5025115;28;20466;-84
2023/02/21 12:38:03;;;;;;;9.80;3.28;;;10.80;99.90;;;;;;5020208;28;20390;-83
2023/02/21 12:40:38;;;;;;;8.70;2.78;;;10.70;99.90;;;;;;5008727;28;20441;-83
2023/02/21 12:43:22;;;;;;;9.48;2.78;;;10.80;99.90;;;;;;5007698;28;20371;-83
2023/02/21 12:45:48;;;;;;;9.27;2.70;;;10.80;99.90;;;;;;5008816;28;20437;-82
2023/02/21 12:48:18;;;;;;;9.83;2.83;;;10.90;99.90;;;;;;5008961;28;20383;-81
2023/02/21 12:50:49;;;;;;;8.73;2.70;;;10.90;99.90;;;;;;5008858;28;20382;-82
2023/02/21 12:53:39;;;;;;;11.30;2.70;;;11.10;99.90;;;;;;5008886;28;20383;-82
2023/02/21 12:56:33;;;;;;;7.60;2.70;;;11.20;99.90;;;;;;5008092;28;20415;-83
2023/02/21 12:59:19;;;;;;;9.55;2.80;;;11.30;99.90;;;;;;5016474;28;21107;-82
2023/02/21 13:02:10;;;;;;;8.77;2.53;;;11.40;99.90;;;;;;5028294;28;20405;-83
2023/02/21 13:04:57;;;;;;;9.23;2.33;;;11.40;99.90;;;;;;5028828;28;20381;-83
2023/02/21 13:07:54;;;;;;;9.52;2.80;;;11.40;99.90;;;;;;5029484;28;20374;-82
2023/02/21 13:10:32;;;;;;;9.48;3.13;;;11.40;99.90;;;;;;5028378;28;20442;-82
2023/02/21 13:13:10;;;;;;;8.30;3.05;;;11.50;99.90;;;;;;5028515;28;20526;-83
2023/02/21 13:15:36;;;;;;;9.68;3.22;;;11.50;99.90;;;;;;5028136;28;20445;-81
2023/02/21 13:18:20;;;;;;;12.90;2.78;;;11.40;99.90;;;;;;5017332;28;20460;-82
2023/02/21 13:20:58;;;;;;;10.27;2.95;;;11.40;99.90;;;;;;5030349;28;20381;-83
2023/02/21 13:23:42;;;;;;;8.32;2.83;;;11.50;99.90;;;;;;5031283;28;20844;-82
2023/02/21 13:26:14;;;;;;;10.20;2.65;;;11.50;99.90;;;;;;5031703;28;20419;-84
2023/02/21 13:28:40;;;;;;;6.95;2.78;;;11.60;99.90;;;;;;5018523;28;20395;-84
2023/02/21 13:31:19;;;;;;;8.07;2.85;;;11.60;99.90;;;;;;5009825;28;20413;-84
2023/02/21 13:33:51;;;;;;;10.30;3.03;;;11.80;99.90;;;;;;5009546;28;20473;-84
2023/02/21 13:36:38;;;;;;;7.65;2.40;;;11.80;99.90;;;;;;5026458;28;20455;-84
2023/02/21 13:39:30;;;;;;;7.13;2.25;;;11.60;99.90;;;;;;5026780;28;20437;-84
2023/02/21 13:42:06;;;;;;;11.20;3.17;;;11.50;99.90;;;;;;5010899;28;20399;-84
2023/02/21 13:45:16;;;;;;;9.57;2.97;;;11.70;99.90;;;;;;4991234;28;20388;-83
2023/02/21 13:48:00;;;;;;;9.23;3.20;;;11.70;99.90;;;;;;4991368;28;20385;-80
2023/02/21 13:50:38;;;;;;;9.13;3.13;;;11.50;99.90;;;;;;4991653;28;20377;-83
2023/02/21 13:53:18;;;;;;;8.48;3.17;;;11.50;99.90;;;;;;5001595;28;20513;-82
2023/02/21 13:56:12;;;;;;;12.27;2.88;;;11.50;99.90;;;;;;5011566;28;20716;-82
2023/02/21 13:58:40;;;;;;;8.05;2.78;;;11.50;99.90;;;;;;5009965;28;20450;-83
2023/02/21 14:01:12;;;;;;;11.50;2.90;;;11.50;99.90;;;;;;5011840;28;20386;-83
2023/02/21 14:03:38;;;;;;;10.15;2.95;;;11.40;99.90;;;;;;5009575;28;20462;-82
2023/02/21 14:06:09;;;;;;;10.40;3.20;;;11.40;99.90;;;;;;5010575;28;20367;-82
2023/02/21 14:08:42;;;;;;;9.40;3.00;;;11.40;99.90;;;;;;5009888;28;20423;-82
2023/02/21 14:11:11;;;;;;;11.73;3.05;;;11.40;99.90;;;;;;5010658;28;20458;-83
2023/02/21 14:13:53;;;;;;;8.98;2.83;;;11.40;99.90;;;;;;5002733;28;20443;-83
2023/02/21 14:16:36;;;;;;;9.60;3.60;;;11.40;99.90;;;;;;5009692;28;20415;-83
2023/02/21 14:19:07;;;;;;;9.85;2.95;;;11.40;99.90;;;;;;5009363;28;20471;-82
2023/02/21 14:21:43;;;;;;;8.93;2.87;;;11.30;99.90;;;;;;5009697;28;20431;-83
2023/02/21 14:24:09;;;;;;;11.50;3.47;;;11.30;99.90;;;;;;5010794;28;20386;-83
2023/02/21 14:27:06;;;;;;;11.15;2.97;;;11.30;99.90;;;;;;5008512;28;20922;-84
2023/02/21 14:29:31;;;;;;;12.13;3.00;;;11.30;99.90;;;;;;5010691;28;20390;-82
2023/02/21 14:32:01;;;;;;;11.67;3.47;;;11.10;99.90;;;;;;5010648;28;20465;-83
2023/02/21 14:34:41;;;;;;;13.88;3.20;;;11.10;99.90;;;;;;5009885;28;20482;-83
2023/02/21 14:37:39;;;;;;;10.38;3.05;;;11.10;99.90;;;;;;5008205;28;20733;-82
2023/02/21 14:40:13;;;;;;;10.52;3.28;;;11.10;99.90;;;;;;5009870;28;20390;-83
2023/02/21 14:42:42;;;;;;;10.82;2.92;;;11.00;99.90;;;;;;5010792;28;20387;-82
2023/02/21 14:45:10;;;;;;;12.95;4.30;;;11.00;99.90;;;;;;5009104;28;20405;-82
2023/02/21 14:48:13;;;;;;;13.38;4.20;;;10.90;99.90;;;;;;5010792;28;20457;-83
2023/02/21 14:50:51;;;;;;;13.23;3.72;;;10.90;99.90;;;;;;5010572;28;20407;-83
2023/02/21 14:53:54;;;;;;;14.70;3.87;;;10.90;99.90;;;;;;5011315;28;20387;-83
2023/02/21 14:56:30;;;;;;;12.33;3.93;;;10.70;99.90;;;;;;5008146;28;20948;-83
2023/02/21 14:59:30;;;;;;;15.02;4.70;;;10.70;99.90;;;;;;5010246;28;20462;-83
2023/02/21 15:02:33;;;;;;;16.33;4.53;;;10.90;99.90;;;;;;5009066;28;20481;-83
2023/02/21 15:05:15;;;;;;;11.75;4.18;;;10.80;99.90;;;;;;5008123;28;20403;-83
2023/02/21 15:07:46;;;;;;;13.95;4.68;;;10.70;99.90;;;;;;5006025;28;20407;-82
2023/02/21 15:10:25;;;;;;;11.65;3.50;;;10.70;99.90;;;;;;5006479;28;20527;-82
2023/02/21 15:13:00;;;;;;;14.30;3.85;;;10.70;99.90;;;;;;5009418;28;20395;-83
2023/02/21 15:15:39;;;;;;;14.48;4.38;;;10.60;99.90;;;;;;5008357;28;20560;-84
2023/02/21 15:18:21;;;;;;;16.05;3.97;;;10.60;99.90;;;;;;5009626;28;20404;-82
2023/02/21 15:21:05;;;;;;;16.52;4.30;;;10.70;99.90;;;;;;5010058;28;20371;-83
2023/02/21 15:23:32;;;;;;;13.90;4.57;;;10.60;99.90;;;;;;4991114;28;20928;-84
2023/02/21 15:26:01;;;;;;;11.60;3.58;;;10.50;99.90;;;;;;5010633;28;20862;-84